Huvudsida
METAR-TAF:

METAR-TAF

Flygplatser :

Ürümqi Diwopu International Airport

Ürümqi, Kina

latitud: 43-54N, longitud: 087-28E, höjd: 654 m

Aktuellt väderrapport

Denna rapport gjordes för 18 minuter sedan, klockan 08:30 UTC
Vind 8 kt från nordost, varierande mellan nord och ost
Temperatur 13°C
Fuktighet 47%
Tryck 1028 hPa
Sikt: 8000 m

METAR: ZWWW 210830Z 05004MPS 010V080 8000 NSC 13/02 Q1028 NOSIG

Tid: 14:48 (08:48 UTC)

Väderprognos

Denna rapport gjordes för 5 timmar och 45 minuter sedan, klockan 03:03 UTC
Prognos gäller från 21 kl. 06 UTC till 22 kl. 06 UTC
Vind 8 kt från nord
Sikt 10 km eller mer
Inga moln under 1 500 m eller inga cumulonimbus
Blir
från 21 kl. 13 UTC till 21 kl. 14 UTC
Vind 8 kt från syd
Blir
från 22 kl. 02 UTC till 22 kl. 03 UTC
Vind 8 kt från nord

TAF: ZWWW 210303Z 2106/2206 36004MPS CAVOK TX13/2109Z TN05/2123Z BECMG 2113/2114 18004MPS BECMG 2202/2203 36004MPS

Aktuella väderrapporter och prognoser från 4000 flygplatser (METAR- och TAF-rapporter).

De tillgängliga stationerna syns som gula och röda prickar på kartan.

För musen över prickarna för att se namnen på stationerna.

Klicka sedan för att få väderrapporter och prognoser.

För att ändra kartan: Klicka på de gröna knapparna med ett svart kors på för att zooma in; den gröna knappen med ett streck på för att zooma ut; eller på de gröna pilarna för angränsande kartor.


METAR-TAF: